Terminal Aerodrome Forecast
Issued by NWS

Home | Current Version | Previous Version | Text Only | Print | Product List | Glossary On
Versions: 1 2 3 4 5 6 7 8 9 10 11 12 13 14 15 16
671
FTUS41 KCLE 221737
TAFFDY
TAF
KFDY 221737Z 2218/2318 24012KT P6SM VCSH BKN040 OVC080
     FM222200 27012G22KT P6SM VCSH BKN040 OVC080
     FM230000 29011KT P6SM SCT040 BKN100
     FM230500 30006KT P6SM SKC
     FM231600 29012KT P6SM BKN040=

USA.gov is the U.S. government's official web portal to all federal, state and local government web resources and services.